sensor_id;sensor_type;location;lat;lon;timestamp;P1;durP1;ratioP1;P2;durP2;ratioP2
74849;SDS011;63397;47.480;19.238;2022-09-12T00:00:02;10.40;;;6.67;;
74849;SDS011;63397;47.480;19.238;2022-09-12T00:03:12;10.55;;;6.50;;
74849;SDS011;63397;47.480;19.238;2022-09-12T00:06:19;11.35;;;6.55;;
74849;SDS011;63397;47.480;19.238;2022-09-12T00:09:24;10.38;;;6.45;;
74849;SDS011;63397;47.480;19.238;2022-09-12T00:12:26;10.15;;;6.00;;
74849;SDS011;63397;47.480;19.238;2022-09-12T00:15:28;9.50;;;6.30;;
74849;SDS011;63397;47.480;19.238;2022-09-12T00:18:31;8.82;;;5.85;;
74849;SDS011;63397;47.480;19.238;2022-09-12T00:21:34;12.32;;;6.53;;
74849;SDS011;63397;47.480;19.238;2022-09-12T00:24:36;10.50;;;6.60;;
74849;SDS011;63397;47.480;19.238;2022-09-12T00:27:41;10.23;;;6.68;;
74849;SDS011;63397;47.480;19.238;2022-09-12T00:30:45;11.07;;;6.73;;
74849;SDS011;63397;47.480;19.238;2022-09-12T00:33:47;11.32;;;7.55;;
74849;SDS011;63397;47.480;19.238;2022-09-12T00:36:50;10.18;;;6.82;;
74849;SDS011;63397;47.480;19.238;2022-09-12T00:39:52;9.82;;;6.38;;
74849;SDS011;63397;47.480;19.238;2022-09-12T00:42:54;9.98;;;6.57;;
74849;SDS011;63397;47.480;19.238;2022-09-12T00:45:57;11.17;;;6.73;;
74849;SDS011;63397;47.480;19.238;2022-09-12T00:55:27;8.95;;;5.63;;
74849;SDS011;63397;47.480;19.238;2022-09-12T00:58:34;8.55;;;5.47;;
74849;SDS011;63397;47.480;19.238;2022-09-12T01:01:38;9.17;;;5.63;;
74849;SDS011;63397;47.480;19.238;2022-09-12T01:04:41;9.93;;;5.38;;
74849;SDS011;63397;47.480;19.238;2022-09-12T01:07:44;9.57;;;5.05;;
74849;SDS011;63397;47.480;19.238;2022-09-12T01:10:49;8.90;;;5.63;;
74849;SDS011;63397;47.480;19.238;2022-09-12T01:13:51;8.57;;;5.35;;
74849;SDS011;63397;47.480;19.238;2022-09-12T01:16:53;8.80;;;5.37;;
74849;SDS011;63397;47.480;19.238;2022-09-12T01:36:03;9.50;;;5.40;;
74849;SDS011;63397;47.480;19.238;2022-09-12T01:39:19;8.82;;;5.10;;
74849;SDS011;63397;47.480;19.238;2022-09-12T01:45:40;8.88;;;5.50;;
74849;SDS011;63397;47.480;19.238;2022-09-12T01:48:53;8.57;;;5.47;;
74849;SDS011;63397;47.480;19.238;2022-09-12T01:52:18;9.02;;;5.07;;
74849;SDS011;63397;47.480;19.238;2022-09-12T01:55:41;8.13;;;4.70;;
74849;SDS011;63397;47.480;19.238;2022-09-12T01:58:45;8.45;;;5.30;;
74849;SDS011;63397;47.480;19.238;2022-09-12T02:01:51;8.90;;;5.35;;
74849;SDS011;63397;47.480;19.238;2022-09-12T02:04:59;8.47;;;4.97;;
74849;SDS011;63397;47.480;19.238;2022-09-12T02:08:16;8.18;;;4.82;;
74849;SDS011;63397;47.480;19.238;2022-09-12T02:11:19;9.05;;;5.30;;
74849;SDS011;63397;47.480;19.238;2022-09-12T02:14:33;9.15;;;5.15;;
74849;SDS011;63397;47.480;19.238;2022-09-12T02:17:38;9.02;;;5.65;;
74849;SDS011;63397;47.480;19.238;2022-09-12T02:20:43;14.80;;;6.23;;
74849;SDS011;63397;47.480;19.238;2022-09-12T02:23:52;14.70;;;6.65;;
74849;SDS011;63397;47.480;19.238;2022-09-12T02:26:58;11.52;;;6.28;;
74849;SDS011;63397;47.480;19.238;2022-09-12T02:30:00;11.52;;;6.22;;
74849;SDS011;63397;47.480;19.238;2022-09-12T02:33:09;10.55;;;5.97;;
74849;SDS011;63397;47.480;19.238;2022-09-12T02:36:24;9.83;;;5.30;;
74849;SDS011;63397;47.480;19.238;2022-09-12T02:39:29;9.70;;;5.57;;
74849;SDS011;63397;47.480;19.238;2022-09-12T02:42:31;9.00;;;5.03;;
74849;SDS011;63397;47.480;19.238;2022-09-12T02:45:34;8.75;;;5.10;;
74849;SDS011;63397;47.480;19.238;2022-09-12T02:48:36;11.18;;;5.00;;
74849;SDS011;63397;47.480;19.238;2022-09-12T02:51:42;7.77;;;4.80;;
74849;SDS011;63397;47.480;19.238;2022-09-12T02:54:45;10.07;;;6.10;;
74849;SDS011;63397;47.480;19.238;2022-09-12T02:57:48;11.43;;;6.70;;
74849;SDS011;63397;47.480;19.238;2022-09-12T03:04:32;13.50;;;7.07;;
74849;SDS011;63397;47.480;19.238;2022-09-12T03:14:14;15.73;;;8.48;;
74849;SDS011;63397;47.480;19.238;2022-09-12T03:24:01;18.23;;;10.10;;
74849;SDS011;63397;47.480;19.238;2022-09-12T03:30:14;20.00;;;9.48;;
74849;SDS011;63397;47.480;19.238;2022-09-12T03:33:17;17.60;;;9.57;;
74849;SDS011;63397;47.480;19.238;2022-09-12T03:36:24;19.42;;;10.38;;
74849;SDS011;63397;47.480;19.238;2022-09-12T03:39:27;20.53;;;10.37;;
74849;SDS011;63397;47.480;19.238;2022-09-12T03:42:29;22.80;;;10.20;;
74849;SDS011;63397;47.480;19.238;2022-09-12T03:45:31;20.02;;;10.77;;
74849;SDS011;63397;47.480;19.238;2022-09-12T03:48:33;18.55;;;10.18;;
74849;SDS011;63397;47.480;19.238;2022-09-12T03:51:36;18.65;;;10.73;;
74849;SDS011;63397;47.480;19.238;2022-09-12T03:54:38;19.60;;;10.53;;
74849;SDS011;63397;47.480;19.238;2022-09-12T03:57:40;22.05;;;11.48;;
74849;SDS011;63397;47.480;19.238;2022-09-12T04:00:43;17.80;;;9.90;;
74849;SDS011;63397;47.480;19.238;2022-09-12T04:03:46;19.13;;;9.60;;
74849;SDS011;63397;47.480;19.238;2022-09-12T04:06:48;20.40;;;10.00;;
74849;SDS011;63397;47.480;19.238;2022-09-12T04:09:50;18.20;;;9.50;;
74849;SDS011;63397;47.480;19.238;2022-09-12T04:12:54;19.50;;;10.13;;
74849;SDS011;63397;47.480;19.238;2022-09-12T04:15:57;19.98;;;10.23;;
74849;SDS011;63397;47.480;19.238;2022-09-12T04:19:00;17.83;;;9.82;;
74849;SDS011;63397;47.480;19.238;2022-09-12T04:22:02;17.83;;;9.38;;
74849;SDS011;63397;47.480;19.238;2022-09-12T04:25:05;18.00;;;9.10;;
74849;SDS011;63397;47.480;19.238;2022-09-12T04:28:07;19.55;;;9.25;;
74849;SDS011;63397;47.480;19.238;2022-09-12T04:31:14;12.23;;;6.70;;
74849;SDS011;63397;47.480;19.238;2022-09-12T04:34:19;11.63;;;5.03;;
74849;SDS011;63397;47.480;19.238;2022-09-12T04:37:21;10.07;;;4.63;;
74849;SDS011;63397;47.480;19.238;2022-09-12T04:40:24;9.23;;;4.33;;
74849;SDS011;63397;47.480;19.238;2022-09-12T04:43:26;9.25;;;3.45;;
74849;SDS011;63397;47.480;19.238;2022-09-12T04:46:29;10.32;;;4.30;;
74849;SDS011;63397;47.480;19.238;2022-09-12T04:49:32;8.32;;;3.00;;
74849;SDS011;63397;47.480;19.238;2022-09-12T04:52:34;5.65;;;2.60;;
74849;SDS011;63397;47.480;19.238;2022-09-12T04:55:36;5.63;;;2.50;;
74849;SDS011;63397;47.480;19.238;2022-09-12T04:58:39;5.57;;;2.38;;
74849;SDS011;63397;47.480;19.238;2022-09-12T05:01:41;4.97;;;2.08;;
74849;SDS011;63397;47.480;19.238;2022-09-12T05:04:43;6.10;;;2.38;;
74849;SDS011;63397;47.480;19.238;2022-09-12T05:07:47;5.97;;;2.38;;
74849;SDS011;63397;47.480;19.238;2022-09-12T05:10:50;5.47;;;1.90;;
74849;SDS011;63397;47.480;19.238;2022-09-12T05:13:52;3.13;;;1.40;;
74849;SDS011;63397;47.480;19.238;2022-09-12T05:16:55;4.93;;;2.13;;
74849;SDS011;63397;47.480;19.238;2022-09-12T05:20:02;5.07;;;1.83;;
74849;SDS011;63397;47.480;19.238;2022-09-12T05:23:04;5.07;;;1.80;;
74849;SDS011;63397;47.480;19.238;2022-09-12T05:26:07;4.23;;;1.60;;
74849;SDS011;63397;47.480;19.238;2022-09-12T05:29:11;4.03;;;1.85;;
74849;SDS011;63397;47.480;19.238;2022-09-12T05:32:14;6.07;;;2.47;;
74849;SDS011;63397;47.480;19.238;2022-09-12T05:35:16;5.20;;;2.00;;
74849;SDS011;63397;47.480;19.238;2022-09-12T05:38:19;6.95;;;2.25;;
74849;SDS011;63397;47.480;19.238;2022-09-12T05:41:25;4.10;;;1.60;;
74849;SDS011;63397;47.480;19.238;2022-09-12T05:44:28;4.40;;;1.85;;
74849;SDS011;63397;47.480;19.238;2022-09-12T05:47:30;5.35;;;2.08;;
74849;SDS011;63397;47.480;19.238;2022-09-12T05:50:34;5.35;;;2.25;;
74849;SDS011;63397;47.480;19.238;2022-09-12T05:53:42;5.03;;;2.05;;
74849;SDS011;63397;47.480;19.238;2022-09-12T05:56:46;4.50;;;1.70;;
74849;SDS011;63397;47.480;19.238;2022-09-12T05:59:49;6.53;;;2.25;;
74849;SDS011;63397;47.480;19.238;2022-09-12T06:02:52;6.32;;;2.65;;
74849;SDS011;63397;47.480;19.238;2022-09-12T06:05:54;4.97;;;2.25;;
74849;SDS011;63397;47.480;19.238;2022-09-12T06:08:59;6.07;;;2.25;;
74849;SDS011;63397;47.480;19.238;2022-09-12T06:12:04;5.10;;;2.30;;
74849;SDS011;63397;47.480;19.238;2022-09-12T06:15:06;6.88;;;2.15;;
74849;SDS011;63397;47.480;19.238;2022-09-12T06:18:09;6.10;;;2.50;;
74849;SDS011;63397;47.480;19.238;2022-09-12T06:21:11;4.10;;;2.10;;
74849;SDS011;63397;47.480;19.238;2022-09-12T06:24:17;5.50;;;2.30;;
74849;SDS011;63397;47.480;19.238;2022-09-12T06:27:19;4.53;;;1.83;;
74849;SDS011;63397;47.480;19.238;2022-09-12T06:30:21;6.32;;;2.55;;
74849;SDS011;63397;47.480;19.238;2022-09-12T06:33:26;5.40;;;2.10;;
74849;SDS011;63397;47.480;19.238;2022-09-12T06:36:29;5.28;;;2.40;;
74849;SDS011;63397;47.480;19.238;2022-09-12T06:39:32;5.32;;;2.40;;
74849;SDS011;63397;47.480;19.238;2022-09-12T06:42:36;5.53;;;2.43;;
74849;SDS011;63397;47.480;19.238;2022-09-12T06:45:39;5.80;;;2.20;;
74849;SDS011;63397;47.480;19.238;2022-09-12T06:48:41;6.05;;;2.72;;
74849;SDS011;63397;47.480;19.238;2022-09-12T06:51:45;4.70;;;2.10;;
74849;SDS011;63397;47.480;19.238;2022-09-12T06:54:49;4.90;;;2.13;;
74849;SDS011;63397;47.480;19.238;2022-09-12T06:57:53;4.67;;;1.93;;
74849;SDS011;63397;47.480;19.238;2022-09-12T07:04:07;5.28;;;1.92;;
74849;SDS011;63397;47.480;19.238;2022-09-12T07:07:11;5.63;;;2.50;;
74849;SDS011;63397;47.480;19.238;2022-09-12T07:10:13;5.78;;;2.08;;
74849;SDS011;63397;47.480;19.238;2022-09-12T07:13:24;4.43;;;1.90;;
74849;SDS011;63397;47.480;19.238;2022-09-12T07:16:35;3.47;;;1.80;;
74849;SDS011;63397;47.480;19.238;2022-09-12T07:19:38;6.00;;;2.75;;
74849;SDS011;63397;47.480;19.238;2022-09-12T07:22:41;6.63;;;2.22;;
74849;SDS011;63397;47.480;19.238;2022-09-12T07:25:51;4.95;;;2.38;;
74849;SDS011;63397;47.480;19.238;2022-09-12T07:28:55;6.00;;;2.47;;
74849;SDS011;63397;47.480;19.238;2022-09-12T07:32:14;5.93;;;2.90;;
74849;SDS011;63397;47.480;19.238;2022-09-12T07:35:16;5.72;;;2.35;;
74849;SDS011;63397;47.480;19.238;2022-09-12T07:38:19;4.85;;;2.10;;
74849;SDS011;63397;47.480;19.238;2022-09-12T07:41:23;7.82;;;3.30;;
74849;SDS011;63397;47.480;19.238;2022-09-12T07:44:26;4.43;;;2.00;;
74849;SDS011;63397;47.480;19.238;2022-09-12T07:47:28;5.72;;;2.67;;
74849;SDS011;63397;47.480;19.238;2022-09-12T07:50:31;5.40;;;2.88;;
74849;SDS011;63397;47.480;19.238;2022-09-12T07:53:39;6.90;;;2.88;;
74849;SDS011;63397;47.480;19.238;2022-09-12T07:56:50;6.68;;;2.35;;
74849;SDS011;63397;47.480;19.238;2022-09-12T07:59:54;5.03;;;2.10;;
74849;SDS011;63397;47.480;19.238;2022-09-12T08:03:01;5.25;;;2.72;;
74849;SDS011;63397;47.480;19.238;2022-09-12T08:06:11;4.32;;;1.90;;
74849;SDS011;63397;47.480;19.238;2022-09-12T08:09:14;4.75;;;1.92;;
74849;SDS011;63397;47.480;19.238;2022-09-12T08:12:19;4.78;;;2.13;;
74849;SDS011;63397;47.480;19.238;2022-09-12T08:15:22;4.90;;;2.17;;
74849;SDS011;63397;47.480;19.238;2022-09-12T08:18:27;3.40;;;1.38;;
74849;SDS011;63397;47.480;19.238;2022-09-12T08:21:31;3.47;;;1.45;;
74849;SDS011;63397;47.480;19.238;2022-09-12T08:24:33;2.28;;;1.10;;
74849;SDS011;63397;47.480;19.238;2022-09-12T08:27:38;2.75;;;1.20;;
74849;SDS011;63397;47.480;19.238;2022-09-12T08:30:41;3.43;;;1.70;;
74849;SDS011;63397;47.480;19.238;2022-09-12T08:33:44;3.83;;;1.48;;
74849;SDS011;63397;47.480;19.238;2022-09-12T08:36:46;4.32;;;2.10;;
74849;SDS011;63397;47.480;19.238;2022-09-12T08:39:49;3.17;;;1.50;;
74849;SDS011;63397;47.480;19.238;2022-09-12T08:46:06;3.17;;;1.47;;
74849;SDS011;63397;47.480;19.238;2022-09-12T08:49:18;4.47;;;1.80;;
74849;SDS011;63397;47.480;19.238;2022-09-12T08:55:36;3.35;;;1.20;;
74849;SDS011;63397;47.480;19.238;2022-09-12T08:58:46;3.25;;;1.50;;
74849;SDS011;63397;47.480;19.238;2022-09-12T09:01:48;4.30;;;1.83;;
74849;SDS011;63397;47.480;19.238;2022-09-12T09:18:00;2.83;;;1.40;;
74849;SDS011;63397;47.480;19.238;2022-09-12T09:21:20;2.85;;;1.25;;
74849;SDS011;63397;47.480;19.238;2022-09-12T09:24:35;2.72;;;1.15;;
74849;SDS011;63397;47.480;19.238;2022-09-12T09:27:48;2.58;;;1.05;;
74849;SDS011;63397;47.480;19.238;2022-09-12T09:30:57;2.83;;;1.25;;
74849;SDS011;63397;47.480;19.238;2022-09-12T09:34:21;2.23;;;0.90;;
74849;SDS011;63397;47.480;19.238;2022-09-12T09:43:42;3.22;;;1.50;;
74849;SDS011;63397;47.480;19.238;2022-09-12T09:46:44;2.22;;;1.13;;
74849;SDS011;63397;47.480;19.238;2022-09-12T09:49:49;2.93;;;1.40;;
74849;SDS011;63397;47.480;19.238;2022-09-12T09:52:52;2.05;;;1.00;;
74849;SDS011;63397;47.480;19.238;2022-09-12T09:55:56;2.97;;;1.10;;
74849;SDS011;63397;47.480;19.238;2022-09-12T09:59:11;2.78;;;1.40;;
74849;SDS011;63397;47.480;19.238;2022-09-12T10:06:01;2.57;;;0.97;;
74849;SDS011;63397;47.480;19.238;2022-09-12T10:12:21;3.33;;;1.10;;
74849;SDS011;63397;47.480;19.238;2022-09-12T10:15:27;2.95;;;1.08;;
74849;SDS011;63397;47.480;19.238;2022-09-12T10:18:38;2.53;;;1.25;;
74849;SDS011;63397;47.480;19.238;2022-09-12T10:21:46;3.37;;;1.30;;
74849;SDS011;63397;47.480;19.238;2022-09-12T10:24:58;2.70;;;1.27;;
74849;SDS011;63397;47.480;19.238;2022-09-12T10:28:00;2.38;;;1.10;;
74849;SDS011;63397;47.480;19.238;2022-09-12T10:31:07;2.63;;;1.00;;
74849;SDS011;63397;47.480;19.238;2022-09-12T10:34:18;2.15;;;1.00;;
74849;SDS011;63397;47.480;19.238;2022-09-12T10:37:23;2.30;;;1.10;;
74849;SDS011;63397;47.480;19.238;2022-09-12T10:40:29;2.35;;;1.17;;
74849;SDS011;63397;47.480;19.238;2022-09-12T10:43:36;2.33;;;0.93;;
74849;SDS011;63397;47.480;19.238;2022-09-12T10:46:39;2.25;;;1.10;;
74849;SDS011;63397;47.480;19.238;2022-09-12T10:49:42;2.50;;;1.08;;
74849;SDS011;63397;47.480;19.238;2022-09-12T10:52:48;2.43;;;1.20;;
74849;SDS011;63397;47.480;19.238;2022-09-12T10:56:20;2.47;;;1.10;;
74849;SDS011;63397;47.480;19.238;2022-09-12T11:06:24;2.10;;;1.05;;
74849;SDS011;63397;47.480;19.238;2022-09-12T11:15:52;2.50;;;1.08;;
74849;SDS011;63397;47.480;19.238;2022-09-12T11:25:26;2.37;;;1.13;;
74849;SDS011;63397;47.480;19.238;2022-09-12T11:41:26;2.43;;;1.00;;
74849;SDS011;63397;47.480;19.238;2022-09-12T11:44:36;3.17;;;1.25;;
74849;SDS011;63397;47.480;19.238;2022-09-12T11:47:42;3.92;;;1.20;;
74849;SDS011;63397;47.480;19.238;2022-09-12T11:50:46;2.08;;;1.10;;
74849;SDS011;63397;47.480;19.238;2022-09-12T11:53:57;1.70;;;0.90;;
74849;SDS011;63397;47.480;19.238;2022-09-12T12:00:15;2.85;;;1.40;;
74849;SDS011;63397;47.480;19.238;2022-09-12T12:03:22;2.03;;;0.90;;
74849;SDS011;63397;47.480;19.238;2022-09-12T12:09:30;1.98;;;0.90;;
74849;SDS011;63397;47.480;19.238;2022-09-12T12:12:32;1.83;;;0.90;;
74849;SDS011;63397;47.480;19.238;2022-09-12T12:16:51;2.17;;;1.05;;
74849;SDS011;63397;47.480;19.238;2022-09-12T12:19:58;2.75;;;1.02;;
74849;SDS011;63397;47.480;19.238;2022-09-12T12:23:24;1.88;;;0.90;;
74849;SDS011;63397;47.480;19.238;2022-09-12T12:29:47;2.37;;;1.10;;
74849;SDS011;63397;47.480;19.238;2022-09-12T12:32:50;2.05;;;1.00;;
74849;SDS011;63397;47.480;19.238;2022-09-12T12:48:35;2.63;;;1.20;;
74849;SDS011;63397;47.480;19.238;2022-09-12T12:51:48;2.47;;;1.13;;
74849;SDS011;63397;47.480;19.238;2022-09-12T12:54:51;2.05;;;0.82;;
74849;SDS011;63397;47.480;19.238;2022-09-12T12:57:55;2.72;;;1.00;;
74849;SDS011;63397;47.480;19.238;2022-09-12T13:01:12;2.00;;;0.93;;
74849;SDS011;63397;47.480;19.238;2022-09-12T13:04:16;2.42;;;1.10;;
74849;SDS011;63397;47.480;19.238;2022-09-12T13:07:27;1.52;;;0.70;;
74849;SDS011;63397;47.480;19.238;2022-09-12T13:10:31;2.47;;;0.98;;
74849;SDS011;63397;47.480;19.238;2022-09-12T13:13:38;2.45;;;0.85;;
74849;SDS011;63397;47.480;19.238;2022-09-12T13:16:55;2.33;;;1.00;;
74849;SDS011;63397;47.480;19.238;2022-09-12T13:23:31;2.28;;;1.10;;
74849;SDS011;63397;47.480;19.238;2022-09-12T13:26:39;2.88;;;1.15;;
74849;SDS011;63397;47.480;19.238;2022-09-12T13:29:41;2.25;;;1.20;;
74849;SDS011;63397;47.480;19.238;2022-09-12T13:32:45;2.80;;;1.20;;
74849;SDS011;63397;47.480;19.238;2022-09-12T13:36:00;2.42;;;1.20;;
74849;SDS011;63397;47.480;19.238;2022-09-12T13:39:19;2.30;;;1.10;;
74849;SDS011;63397;47.480;19.238;2022-09-12T13:45:24;2.15;;;1.00;;
74849;SDS011;63397;47.480;19.238;2022-09-12T13:48:29;1.60;;;0.80;;
74849;SDS011;63397;47.480;19.238;2022-09-12T13:51:32;2.15;;;1.05;;
74849;SDS011;63397;47.480;19.238;2022-09-12T13:54:34;2.50;;;1.20;;
74849;SDS011;63397;47.480;19.238;2022-09-12T13:57:40;1.83;;;0.90;;
74849;SDS011;63397;47.480;19.238;2022-09-12T14:00:43;3.05;;;1.10;;
74849;SDS011;63397;47.480;19.238;2022-09-12T14:03:51;2.13;;;1.10;;
74849;SDS011;63397;47.480;19.238;2022-09-12T14:07:19;2.17;;;0.80;;
74849;SDS011;63397;47.480;19.238;2022-09-12T14:10:31;1.77;;;0.70;;
74849;SDS011;63397;47.480;19.238;2022-09-12T14:13:34;1.88;;;0.90;;
74849;SDS011;63397;47.480;19.238;2022-09-12T14:16:37;2.13;;;1.08;;
74849;SDS011;63397;47.480;19.238;2022-09-12T14:19:40;2.43;;;1.13;;
74849;SDS011;63397;47.480;19.238;2022-09-12T14:22:44;2.03;;;0.90;;
74849;SDS011;63397;47.480;19.238;2022-09-12T14:25:52;1.70;;;0.85;;
74849;SDS011;63397;47.480;19.238;2022-09-12T14:28:55;2.00;;;0.75;;
74849;SDS011;63397;47.480;19.238;2022-09-12T14:32:01;2.17;;;0.93;;
74849;SDS011;63397;47.480;19.238;2022-09-12T14:35:05;2.03;;;0.90;;
74849;SDS011;63397;47.480;19.238;2022-09-12T14:41:13;1.67;;;0.60;;
74849;SDS011;63397;47.480;19.238;2022-09-12T14:44:23;1.63;;;0.70;;
74849;SDS011;63397;47.480;19.238;2022-09-12T14:47:26;1.83;;;0.80;;
74849;SDS011;63397;47.480;19.238;2022-09-12T14:50:29;1.40;;;0.60;;
74849;SDS011;63397;47.480;19.238;2022-09-12T14:53:36;2.00;;;0.63;;
74849;SDS011;63397;47.480;19.238;2022-09-12T14:56:39;1.73;;;0.88;;
74849;SDS011;63397;47.480;19.238;2022-09-12T14:59:51;1.30;;;0.60;;
74849;SDS011;63397;47.480;19.238;2022-09-12T15:06:33;1.17;;;0.57;;
74849;SDS011;63397;47.480;19.238;2022-09-12T15:09:40;1.23;;;0.52;;
74849;SDS011;63397;47.480;19.238;2022-09-12T15:12:48;1.40;;;0.57;;
74849;SDS011;63397;47.480;19.238;2022-09-12T15:15:54;2.28;;;0.68;;
74849;SDS011;63397;47.480;19.238;2022-09-12T15:18:57;1.42;;;0.70;;
74849;SDS011;63397;47.480;19.238;2022-09-12T15:21:59;2.20;;;0.77;;
74849;SDS011;63397;47.480;19.238;2022-09-12T15:25:01;1.35;;;0.55;;
74849;SDS011;63397;47.480;19.238;2022-09-12T15:28:25;1.20;;;0.50;;
74849;SDS011;63397;47.480;19.238;2022-09-12T15:31:28;1.63;;;0.70;;
74849;SDS011;63397;47.480;19.238;2022-09-12T15:34:31;1.85;;;0.60;;
74849;SDS011;63397;47.480;19.238;2022-09-12T15:37:33;1.30;;;0.50;;
74849;SDS011;63397;47.480;19.238;2022-09-12T15:40:35;1.65;;;0.73;;
74849;SDS011;63397;47.480;19.238;2022-09-12T15:43:37;1.48;;;0.68;;
74849;SDS011;63397;47.480;19.238;2022-09-12T15:46:40;1.80;;;0.60;;
74849;SDS011;63397;47.480;19.238;2022-09-12T15:49:42;1.40;;;0.50;;
74849;SDS011;63397;47.480;19.238;2022-09-12T15:52:44;1.40;;;0.60;;
74849;SDS011;63397;47.480;19.238;2022-09-12T15:55:47;2.00;;;0.50;;
74849;SDS011;63397;47.480;19.238;2022-09-12T15:58:50;1.20;;;0.60;;
74849;SDS011;63397;47.480;19.238;2022-09-12T16:02:01;1.20;;;0.50;;
74849;SDS011;63397;47.480;19.238;2022-09-12T16:05:03;0.90;;;0.40;;
74849;SDS011;63397;47.480;19.238;2022-09-12T16:08:06;2.50;;;0.73;;
74849;SDS011;63397;47.480;19.238;2022-09-12T16:11:18;1.05;;;0.50;;
74849;SDS011;63397;47.480;19.238;2022-09-12T16:14:21;1.00;;;0.40;;
74849;SDS011;63397;47.480;19.238;2022-09-12T16:17:23;1.30;;;0.45;;
74849;SDS011;63397;47.480;19.238;2022-09-12T16:20:26;2.00;;;0.60;;
74849;SDS011;63397;47.480;19.238;2022-09-12T16:23:28;1.57;;;0.60;;
74849;SDS011;63397;47.480;19.238;2022-09-12T16:26:30;1.67;;;0.50;;
74849;SDS011;63397;47.480;19.238;2022-09-12T16:29:33;2.03;;;0.60;;
74849;SDS011;63397;47.480;19.238;2022-09-12T16:32:35;1.23;;;0.50;;
74849;SDS011;63397;47.480;19.238;2022-09-12T16:35:38;1.55;;;0.57;;
74849;SDS011;63397;47.480;19.238;2022-09-12T16:38:41;1.43;;;0.50;;
74849;SDS011;63397;47.480;19.238;2022-09-12T16:41:44;1.60;;;0.60;;
74849;SDS011;63397;47.480;19.238;2022-09-12T16:44:46;1.20;;;0.50;;
74849;SDS011;63397;47.480;19.238;2022-09-12T16:47:49;1.35;;;0.40;;
74849;SDS011;63397;47.480;19.238;2022-09-12T16:50:58;1.08;;;0.60;;
74849;SDS011;63397;47.480;19.238;2022-09-12T16:54:02;1.40;;;0.60;;
74849;SDS011;63397;47.480;19.238;2022-09-12T16:57:05;1.55;;;0.70;;
74849;SDS011;63397;47.480;19.238;2022-09-12T17:00:07;1.48;;;0.65;;
74849;SDS011;63397;47.480;19.238;2022-09-12T17:03:10;1.40;;;0.65;;
74849;SDS011;63397;47.480;19.238;2022-09-12T17:06:14;1.73;;;0.55;;
74849;SDS011;63397;47.480;19.238;2022-09-12T17:09:17;1.87;;;0.50;;
74849;SDS011;63397;47.480;19.238;2022-09-12T17:12:19;2.42;;;0.60;;
74849;SDS011;63397;47.480;19.238;2022-09-12T17:15:22;1.73;;;0.50;;
74849;SDS011;63397;47.480;19.238;2022-09-12T17:18:24;2.53;;;0.57;;
74849;SDS011;63397;47.480;19.238;2022-09-12T17:21:27;2.20;;;0.60;;
74849;SDS011;63397;47.480;19.238;2022-09-12T17:24:29;1.67;;;0.50;;
74849;SDS011;63397;47.480;19.238;2022-09-12T17:27:32;2.40;;;0.90;;
74849;SDS011;63397;47.480;19.238;2022-09-12T17:30:35;2.90;;;1.00;;
74849;SDS011;63397;47.480;19.238;2022-09-12T17:33:37;2.85;;;1.15;;
74849;SDS011;63397;47.480;19.238;2022-09-12T17:36:41;3.80;;;1.50;;
74849;SDS011;63397;47.480;19.238;2022-09-12T17:39:45;3.80;;;1.57;;
74849;SDS011;63397;47.480;19.238;2022-09-12T17:42:47;2.30;;;0.95;;
74849;SDS011;63397;47.480;19.238;2022-09-12T17:45:54;2.70;;;1.10;;
74849;SDS011;63397;47.480;19.238;2022-09-12T17:48:56;2.72;;;1.20;;
74849;SDS011;63397;47.480;19.238;2022-09-12T17:51:58;1.88;;;0.70;;
74849;SDS011;63397;47.480;19.238;2022-09-12T17:55:01;2.63;;;0.90;;
74849;SDS011;63397;47.480;19.238;2022-09-12T17:58:04;2.15;;;0.85;;
74849;SDS011;63397;47.480;19.238;2022-09-12T18:01:08;3.60;;;0.95;;
74849;SDS011;63397;47.480;19.238;2022-09-12T18:04:30;2.47;;;0.80;;
74849;SDS011;63397;47.480;19.238;2022-09-12T18:07:32;1.70;;;0.70;;
74849;SDS011;63397;47.480;19.238;2022-09-12T18:10:43;2.53;;;0.80;;
74849;SDS011;63397;47.480;19.238;2022-09-12T18:13:45;3.28;;;1.40;;
74849;SDS011;63397;47.480;19.238;2022-09-12T18:16:47;4.47;;;1.50;;
74849;SDS011;63397;47.480;19.238;2022-09-12T18:19:49;3.33;;;1.42;;
74849;SDS011;63397;47.480;19.238;2022-09-12T18:22:54;2.92;;;1.35;;
74849;SDS011;63397;47.480;19.238;2022-09-12T18:25:57;3.77;;;1.57;;
74849;SDS011;63397;47.480;19.238;2022-09-12T18:29:00;3.67;;;1.73;;
74849;SDS011;63397;47.480;19.238;2022-09-12T18:32:02;3.83;;;1.98;;
74849;SDS011;63397;47.480;19.238;2022-09-12T18:35:05;3.88;;;1.95;;
74849;SDS011;63397;47.480;19.238;2022-09-12T18:38:07;3.65;;;1.70;;
74849;SDS011;63397;47.480;19.238;2022-09-12T18:41:28;3.87;;;1.70;;
74849;SDS011;63397;47.480;19.238;2022-09-12T18:44:30;3.95;;;1.80;;
74849;SDS011;63397;47.480;19.238;2022-09-12T18:47:32;3.63;;;1.80;;
74849;SDS011;63397;47.480;19.238;2022-09-12T18:50:35;4.13;;;1.80;;
74849;SDS011;63397;47.480;19.238;2022-09-12T18:53:37;4.30;;;1.77;;
74849;SDS011;63397;47.480;19.238;2022-09-12T18:56:40;5.27;;;2.17;;
74849;SDS011;63397;47.480;19.238;2022-09-12T18:59:44;3.90;;;1.88;;
74849;SDS011;63397;47.480;19.238;2022-09-12T19:02:47;4.20;;;2.10;;
74849;SDS011;63397;47.480;19.238;2022-09-12T19:05:49;5.57;;;2.20;;
74849;SDS011;63397;47.480;19.238;2022-09-12T19:08:51;4.72;;;2.22;;
74849;SDS011;63397;47.480;19.238;2022-09-12T19:11:54;5.17;;;2.13;;
74849;SDS011;63397;47.480;19.238;2022-09-12T19:14:56;5.40;;;2.50;;
74849;SDS011;63397;47.480;19.238;2022-09-12T19:17:59;4.68;;;2.22;;
74849;SDS011;63397;47.480;19.238;2022-09-12T19:21:02;4.70;;;2.13;;
74849;SDS011;63397;47.480;19.238;2022-09-12T19:24:05;4.68;;;2.33;;
74849;SDS011;63397;47.480;19.238;2022-09-12T19:27:08;4.33;;;2.00;;
74849;SDS011;63397;47.480;19.238;2022-09-12T19:30:12;3.92;;;1.98;;
74849;SDS011;63397;47.480;19.238;2022-09-12T19:33:15;4.35;;;2.13;;
74849;SDS011;63397;47.480;19.238;2022-09-12T19:36:18;4.93;;;2.38;;
74849;SDS011;63397;47.480;19.238;2022-09-12T19:39:40;6.25;;;1.98;;
74849;SDS011;63397;47.480;19.238;2022-09-12T19:42:45;6.13;;;1.80;;
74849;SDS011;63397;47.480;19.238;2022-09-12T19:45:47;5.13;;;1.95;;
74849;SDS011;63397;47.480;19.238;2022-09-12T19:48:50;4.13;;;1.90;;
74849;SDS011;63397;47.480;19.238;2022-09-12T19:51:53;4.18;;;2.10;;
74849;SDS011;63397;47.480;19.238;2022-09-12T19:54:56;4.35;;;1.88;;
74849;SDS011;63397;47.480;19.238;2022-09-12T19:57:58;6.23;;;1.93;;
74849;SDS011;63397;47.480;19.238;2022-09-12T20:01:08;4.18;;;1.90;;
74849;SDS011;63397;47.480;19.238;2022-09-12T20:04:10;3.22;;;1.77;;
74849;SDS011;63397;47.480;19.238;2022-09-12T20:07:12;3.80;;;1.83;;
74849;SDS011;63397;47.480;19.238;2022-09-12T20:10:15;3.40;;;1.90;;
74849;SDS011;63397;47.480;19.238;2022-09-12T20:13:17;4.80;;;2.00;;
74849;SDS011;63397;47.480;19.238;2022-09-12T20:16:22;5.25;;;2.00;;
74849;SDS011;63397;47.480;19.238;2022-09-12T20:19:26;4.82;;;2.38;;
74849;SDS011;63397;47.480;19.238;2022-09-12T20:22:29;3.47;;;1.83;;
74849;SDS011;63397;47.480;19.238;2022-09-12T20:25:31;3.95;;;1.95;;
74849;SDS011;63397;47.480;19.238;2022-09-12T20:28:36;4.60;;;2.23;;
74849;SDS011;63397;47.480;19.238;2022-09-12T20:31:39;3.92;;;2.00;;
74849;SDS011;63397;47.480;19.238;2022-09-12T20:34:42;4.60;;;2.15;;
74849;SDS011;63397;47.480;19.238;2022-09-12T20:37:45;4.32;;;2.30;;
74849;SDS011;63397;47.480;19.238;2022-09-12T20:40:47;5.28;;;2.20;;
74849;SDS011;63397;47.480;19.238;2022-09-12T20:43:50;4.73;;;2.67;;
74849;SDS011;63397;47.480;19.238;2022-09-12T20:46:53;5.78;;;2.50;;